Family Matters — WDI2231 — position and weather

sailwx.info

Track history (hours):
 
Tides and Currents Weather Stations Pressure Air Temp Water Temp Dewpoint Dewpoint Depression Visibility Wind Speed Wind Dir Waves Ship Positions

Family Matters

Owner: Tightline charters of sarasota inc., sarasota, FL. More information available from US FCC via Universal Licensing System and Coast Guard Vessel Documentation Center.

Last reported at 2018-Feb-24 21:10 UTC. Time now 2018-Feb-25 01:38 UTC.
Position N 26°55' W 080°00'.

Length 19 m.

Type: Pleasure craft. MMSI: 367676030.

Date/timePositionNaut miles runAvg speedWind from/ knotsBaromVisibWave heightAir tempDewpointWater temp
2018-Feb-24 21:10N 26°55' W 080°00'213.3
2018-Feb-24 21:00N 26°57' W 079°60'1 1.2
2018-Feb-24 20:30N 26°57' W 080°00'1 1.5
2018-Feb-24 20:00N 26°57' W 079°59'1 2.1
2018-Feb-24 19:29N 26°56' W 079°59'0 0.1
2018-Feb-24 18:31N 26°56' W 079°59'0 3.0
2018-Feb-24 18:28N 26°55' W 079°59'1 1.5
2018-Feb-24 17:57N 26°56' W 079°59'1 2.6
2018-Feb-24 17:30N 26°55' W 079°59'1 2.0
2018-Feb-24 17:00N 26°54' W 079°59'1 3.0
2018-Feb-24 16:30N 26°55' W 079°59'1 1.3
2018-Feb-24 16:00N 26°56' W 079°59'0 0.1
2018-Feb-24 15:30N 26°56' W 079°59'1 1.5
2018-Feb-24 15:00N 26°55' W 079°59'0 0.3
2018-Feb-24 14:30N 26°56' W 079°59'1 2.0
2018-Feb-24 13:59N 26°57' W 079°59'1 1.1
2018-Feb-24 13:30N 26°57' W 079°60'1 1.6
2018-Feb-24 13:00N 26°56' W 079°59'2 3.6
2018-Feb-24 12:30N 26°55' W 079°59'2 0.2
2018-Feb-23 22:18N 26°52' W 080°01'812.8
2018-Feb-23 21:40N 27°00' W 079°58'1 4.3
2018-Feb-23 21:29N 26°60' W 079°58'2 3.2
2018-Feb-23 21:00N 26°58' W 079°58'2 3.5
2018-Feb-23 20:21N 26°56' W 079°59'1 2.3
2018-Feb-23 19:59N 26°55' W 079°59'1 1.8
2018-Feb-23 19:30N 26°56' W 079°59'1 0.7
2018-Feb-23 18:44N 26°56' W 079°60'1 5.7
2018-Feb-23 18:30N 26°57' W 079°60'1 1.3
2018-Feb-23 18:00N 26°56' W 079°60'1 2.6
2018-Feb-23 17:30N 26°58' W 079°59'1 1.2
2018-Feb-23 17:00N 26°57' W 079°60'1 1.5
2018-Feb-23 16:29N 26°56' W 079°59'1 2.1
2018-Feb-23 16:00N 26°57' W 079°60'1 1.6
2018-Feb-23 15:30N 26°56' W 079°59'0 0.2
2018-Feb-23 15:00N 26°56' W 079°59'2 3.5
2018-Feb-23 14:30N 26°58' W 079°60'1 1.3
2018-Feb-23 14:00N 26°57' W 079°60'0 0.9
2018-Feb-23 13:30N 26°58' W 079°59'1 2.0
2018-Feb-23 13:00N 26°57' W 079°59'1 2.7
2018-Feb-23 12:30N 26°55' W 079°59'5 0.2
2018-Feb-22 17:41N 26°51' W 080°01'424.3
2018-Feb-22 17:30N 26°55' W 080°00'2 3.4
2018-Feb-22 17:00N 26°57' W 079°59'0 0.4
2018-Feb-22 16:30N 26°57' W 079°59'0 0.9
2018-Feb-22 16:00N 26°57' W 079°59'1 1.3
2018-Feb-22 15:29N 26°57' W 079°59'1 2.0
2018-Feb-22 14:59N 26°56' W 079°59'1 2.4
2018-Feb-22 14:26N 26°54' W 079°59'1 2.2
2018-Feb-22 14:00N 26°53' W 079°59'1 0.1
2018-Feb-21 18:13N 26°54' W 080°00'419.4
2018-Feb-21 18:00N 26°58' W 079°59'1 1.6
2018-Feb-21 17:30N 26°57' W 079°59'0 0.5
2018-Feb-21 17:00N 26°57' W 079°60'0 0.9
2018-Feb-21 16:30N 26°56' W 079°59'1 1.6
2018-Feb-21 16:00N 26°56' W 079°59'1 2.2
2018-Feb-21 15:30N 26°54' W 079°59'1 2.8
2018-Feb-21 14:59N 26°53' W 079°59'3 5.4
2018-Feb-21 14:30N 26°56' W 079°59'1 1.9
2018-Feb-21 14:00N 26°55' W 079°59'  
Track history (hours):
 
Tides and Currents Weather Stations Pressure Air Temp Water Temp Dewpoint Dewpoint Depression Visibility Wind Speed Wind Dir Waves Ship Positions

Family Matters

Owner: Tightline charters of sarasota inc., sarasota, FL. More information available from US FCC via Universal Licensing System and Coast Guard Vessel Documentation Center.

Last reported at 2018-Feb-24 21:10 UTC. Time now 2018-Feb-25 01:38 UTC.
Position N 26°55' W 080°00'.

Length 19 m.

Type: Pleasure craft. MMSI: 367676030.

Date/timePositionNaut miles runAvg speedWind from/ knotsBaromVisibWave heightAir tempDewpointWater temp
2018-Feb-24 21:10N 26°55' W 080°00'213.3
2018-Feb-24 21:00N 26°57' W 079°60'1 1.2
2018-Feb-24 20:30N 26°57' W 080°00'1 1.5
2018-Feb-24 20:00N 26°57' W 079°59'1 2.1
2018-Feb-24 19:29N 26°56' W 079°59'0 0.1
2018-Feb-24 18:31N 26°56' W 079°59'0 3.0
2018-Feb-24 18:28N 26°55' W 079°59'1 1.5
2018-Feb-24 17:57N 26°56' W 079°59'1 2.6
2018-Feb-24 17:30N 26°55' W 079°59'1 2.0
2018-Feb-24 17:00N 26°54' W 079°59'1 3.0
2018-Feb-24 16:30N 26°55' W 079°59'1 1.3
2018-Feb-24 16:00N 26°56' W 079°59'0 0.1
2018-Feb-24 15:30N 26°56' W 079°59'1 1.5
2018-Feb-24 15:00N 26°55' W 079°59'0 0.3
2018-Feb-24 14:30N 26°56' W 079°59'1 2.0
2018-Feb-24 13:59N 26°57' W 079°59'1 1.1
2018-Feb-24 13:30N 26°57' W 079°60'1 1.6
2018-Feb-24 13:00N 26°56' W 079°59'2 3.6
2018-Feb-24 12:30N 26°55' W 079°59'2 0.2
2018-Feb-23 22:18N 26°52' W 080°01'812.8
2018-Feb-23 21:40N 27°00' W 079°58'1 4.3
2018-Feb-23 21:29N 26°60' W 079°58'2 3.2
2018-Feb-23 21:00N 26°58' W 079°58'2 3.5
2018-Feb-23 20:21N 26°56' W 079°59'1 2.3
2018-Feb-23 19:59N 26°55' W 079°59'1 1.8
2018-Feb-23 19:30N 26°56' W 079°59'1 0.7
2018-Feb-23 18:44N 26°56' W 079°60'1 5.7
2018-Feb-23 18:30N 26°57' W 079°60'1 1.3
2018-Feb-23 18:00N 26°56' W 079°60'1 2.6
2018-Feb-23 17:30N 26°58' W 079°59'1 1.2
2018-Feb-23 17:00N 26°57' W 079°60'1 1.5
2018-Feb-23 16:29N 26°56' W 079°59'1 2.1
2018-Feb-23 16:00N 26°57' W 079°60'1 1.6
2018-Feb-23 15:30N 26°56' W 079°59'0 0.2
2018-Feb-23 15:00N 26°56' W 079°59'2 3.5
2018-Feb-23 14:30N 26°58' W 079°60'1 1.3
2018-Feb-23 14:00N 26°57' W 079°60'0 0.9
2018-Feb-23 13:30N 26°58' W 079°59'1 2.0
2018-Feb-23 13:00N 26°57' W 079°59'1 2.7
2018-Feb-23 12:30N 26°55' W 079°59'5 0.2
2018-Feb-22 17:41N 26°51' W 080°01'424.3
2018-Feb-22 17:30N 26°55' W 080°00'2 3.4
2018-Feb-22 17:00N 26°57' W 079°59'0 0.4
2018-Feb-22 16:30N 26°57' W 079°59'0 0.9
2018-Feb-22 16:00N 26°57' W 079°59'1 1.3
2018-Feb-22 15:29N 26°57' W 079°59'1 2.0
2018-Feb-22 14:59N 26°56' W 079°59'1 2.4
2018-Feb-22 14:26N 26°54' W 079°59'1 2.2
2018-Feb-22 14:00N 26°53' W 079°59'1 0.1
2018-Feb-21 18:13N 26°54' W 080°00'419.4
2018-Feb-21 18:00N 26°58' W 079°59'1 1.6
2018-Feb-21 17:30N 26°57' W 079°59'0 0.5
2018-Feb-21 17:00N 26°57' W 079°60'0 0.9
2018-Feb-21 16:30N 26°56' W 079°59'1 1.6
2018-Feb-21 16:00N 26°56' W 079°59'1 2.2
2018-Feb-21 15:30N 26°54' W 079°59'1 2.8
2018-Feb-21 14:59N 26°53' W 079°59'3 5.4
2018-Feb-21 14:30N 26°56' W 079°59'1 1.9
2018-Feb-21 14:00N 26°55' W 079°59'  

Dump ship's entire track history